createdAt,value
2019-02-15T00:04:08.355Z,23.00
2019-02-15T00:07:21.919Z,23.00
2019-02-15T00:10:44.613Z,23.00
2019-02-15T00:13:59.819Z,23.00
2019-02-15T00:17:17.317Z,23.00
2019-02-15T00:20:51.928Z,23.00
2019-02-15T00:24:07.363Z,23.00
2019-02-15T00:27:23.343Z,23.00
2019-02-15T00:30:39.035Z,23.00
2019-02-15T00:33:54.999Z,22.90
2019-02-15T00:37:10.250Z,22.90
2019-02-15T00:40:26.180Z,22.90
2019-02-15T00:43:42.271Z,22.90
2019-02-15T00:50:32.415Z,22.90
2019-02-15T00:53:47.657Z,22.90
2019-02-15T00:57:29.556Z,22.90
2019-02-15T01:01:04.243Z,22.90
2019-02-15T01:04:38.755Z,22.90
2019-02-15T01:08:13.427Z,22.90
2019-02-15T01:11:31.234Z,22.90
2019-02-15T01:14:46.645Z,22.90
2019-02-15T01:18:02.469Z,22.80
2019-02-15T01:21:18.069Z,22.80
2019-02-15T01:24:33.250Z,22.80
2019-02-15T01:27:50.842Z,22.80
2019-02-15T01:35:08.182Z,22.80
2019-02-15T01:38:50.086Z,22.80
2019-02-15T01:42:24.575Z,22.80
2019-02-15T01:45:42.398Z,22.80
2019-02-15T01:48:58.300Z,22.80
2019-02-15T01:52:14.352Z,22.80
2019-02-15T01:55:29.613Z,22.80
2019-02-15T01:58:44.956Z,22.80
2019-02-15T02:02:01.203Z,22.80
2019-02-15T02:05:16.905Z,22.80
2019-02-15T02:08:32.967Z,22.80
2019-02-15T02:11:48.707Z,22.80
2019-02-15T02:15:04.912Z,22.80
2019-02-15T02:18:20.340Z,22.80
2019-02-15T02:21:35.570Z,22.80
2019-02-15T02:24:49.127Z,22.80
2019-02-15T02:28:11.824Z,22.80
2019-02-15T02:31:27.650Z,22.80
2019-02-15T02:34:43.678Z,22.80
2019-02-15T02:37:59.338Z,22.80
2019-02-15T02:41:15.013Z,22.80
2019-02-15T02:44:30.800Z,22.80
2019-02-15T02:47:46.728Z,22.80
2019-02-15T02:51:02.652Z,22.80
2019-02-15T02:54:18.351Z,22.70
2019-02-15T02:57:33.620Z,22.70
2019-02-15T03:00:49.444Z,22.70
2019-02-15T03:04:04.663Z,22.70
2019-02-15T03:07:20.694Z,22.70
2019-02-15T03:10:36.839Z,22.70
2019-02-15T03:13:52.856Z,22.70
2019-02-15T03:17:08.965Z,22.70
2019-02-15T03:20:31.422Z,22.80
2019-02-15T03:23:41.876Z,22.70
2019-02-15T03:26:55.448Z,22.70
2019-02-15T03:30:11.108Z,22.70
2019-02-15T03:33:26.773Z,22.70
2019-02-15T03:36:47.324Z,22.70
2019-02-15T03:40:04.904Z,22.70
2019-02-15T03:43:20.122Z,22.70
2019-02-15T03:46:36.233Z,22.70
2019-02-15T03:49:51.416Z,22.70
2019-02-15T03:53:07.549Z,22.70
2019-02-15T03:56:23.539Z,22.70
2019-02-15T03:59:39.122Z,22.70
2019-02-15T04:02:54.883Z,22.70
2019-02-15T04:06:08.506Z,22.70
2019-02-15T04:09:31.199Z,22.70
2019-02-15T04:12:46.423Z,22.70
2019-02-15T04:16:02.468Z,22.60
2019-02-15T04:19:18.440Z,22.60
2019-02-15T04:22:34.418Z,22.60
2019-02-15T04:25:50.274Z,22.60
2019-02-15T04:29:03.826Z,22.60
2019-02-15T04:32:26.589Z,22.70
2019-02-15T04:35:41.932Z,22.60
2019-02-15T04:38:57.738Z,22.60
2019-02-15T04:42:13.256Z,22.60
2019-02-15T04:45:28.804Z,22.60
2019-02-15T04:48:44.382Z,22.60
2019-02-15T04:52:00.176Z,22.60
2019-02-15T04:55:15.397Z,22.60
2019-02-15T04:58:31.489Z,22.60
2019-02-15T05:01:47.454Z,22.60
2019-02-15T05:05:02.753Z,22.70
2019-02-15T05:08:18.959Z,22.60
2019-02-15T05:11:34.704Z,22.60
2019-02-15T05:14:53.218Z,22.60
2019-02-15T05:18:08.509Z,22.60
2019-02-15T05:21:24.607Z,22.60
2019-02-15T05:24:40.395Z,22.60
2019-02-15T05:27:56.317Z,22.60
2019-02-15T05:31:12.312Z,22.60
2019-02-15T05:34:27.503Z,22.60
2019-02-15T05:37:42.980Z,22.60
2019-02-15T05:40:58.314Z,22.60
2019-02-15T05:44:16.323Z,22.60
2019-02-15T05:47:31.162Z,22.60
2019-02-15T05:50:47.094Z,22.60
2019-02-15T05:54:03.018Z,22.60
2019-02-15T05:57:18.854Z,22.60
2019-02-15T06:00:37.017Z,22.60
2019-02-15T06:03:51.228Z,22.60
2019-02-15T06:07:07.162Z,22.60
2019-02-15T06:10:22.879Z,21.90
2019-02-15T06:13:38.832Z,22.60
2019-02-15T06:16:54.607Z,22.60
2019-02-15T06:20:10.619Z,22.60
2019-02-15T06:23:26.576Z,22.60
2019-02-15T06:26:42.396Z,22.60
2019-02-15T06:29:58.230Z,22.60
2019-02-15T06:33:14.437Z,22.60
2019-02-15T06:36:31.938Z,22.20
2019-02-15T06:39:48.053Z,22.60
2019-02-15T06:43:04.066Z,22.60
2019-02-15T06:46:19.809Z,22.60
2019-02-15T06:49:35.802Z,22.50
2019-02-15T06:52:51.066Z,22.50
2019-02-15T06:56:06.373Z,22.50
2019-02-15T06:59:23.991Z,22.50
2019-02-15T07:02:41.067Z,22.50
2019-02-15T07:05:57.299Z,22.50
2019-02-15T07:09:15.128Z,22.50
2019-02-15T07:15:52.886Z,22.50
2019-02-15T07:19:15.562Z,22.50
2019-02-15T07:22:31.550Z,22.50
2019-02-15T07:25:47.631Z,22.50
2019-02-15T07:29:03.310Z,22.50
2019-02-15T07:32:18.590Z,22.50
2019-02-15T07:35:34.549Z,22.60
2019-02-15T07:38:50.618Z,22.50
2019-02-15T07:42:06.798Z,22.50
2019-02-15T07:45:22.794Z,22.50
2019-02-15T07:48:38.684Z,22.50
2019-02-15T07:51:54.328Z,22.50
2019-02-15T07:55:10.523Z,22.50
2019-02-15T07:58:26.635Z,22.50
2019-02-15T08:01:42.773Z,22.50
2019-02-15T08:04:58.689Z,22.50
2019-02-15T08:08:14.429Z,22.50
2019-02-15T08:11:30.439Z,22.50
2019-02-15T08:14:46.229Z,22.50
2019-02-15T08:18:02.163Z,22.50
2019-02-15T08:21:18.283Z,22.60
2019-02-15T08:24:34.309Z,22.60
2019-02-15T08:27:49.669Z,22.60
2019-02-15T08:31:04.910Z,22.60
2019-02-15T08:34:20.961Z,22.60
2019-02-15T08:37:36.367Z,22.60
2019-02-15T08:40:51.674Z,22.60
2019-02-15T08:44:07.677Z,22.70
2019-02-15T08:47:21.320Z,22.70
2019-02-15T08:50:44.006Z,22.70
2019-02-15T08:54:06.699Z,22.70
2019-02-15T08:57:29.396Z,22.80
2019-02-15T09:00:45.365Z,22.80
2019-02-15T09:04:00.758Z,22.80
2019-02-15T09:07:15.942Z,22.80
2019-02-15T09:10:32.077Z,22.80
2019-02-15T09:13:48.081Z,22.90
2019-02-15T09:17:03.374Z,22.90
2019-02-15T09:23:36.994Z,22.90
2019-02-15T09:26:52.427Z,22.90
2019-02-15T09:30:08.548Z,22.90
2019-02-15T09:33:24.444Z,23.00
2019-02-15T09:36:40.583Z,23.00
2019-02-15T09:39:56.707Z,23.00
2019-02-15T09:43:12.808Z,23.00
2019-02-15T09:46:28.678Z,23.00
2019-02-15T09:49:45.229Z,23.00
2019-02-15T09:53:01.679Z,23.00
2019-02-15T09:56:17.737Z,23.10
2019-02-15T09:59:32.882Z,23.10
2019-02-15T10:02:48.856Z,23.10
2019-02-15T10:06:04.114Z,23.10
2019-02-15T10:09:19.412Z,23.10
2019-02-15T10:12:34.694Z,23.20
2019-02-15T10:15:50.737Z,23.20
2019-02-15T10:19:06.774Z,23.20
2019-02-15T10:22:22.943Z,23.20
2019-02-15T10:25:38.209Z,23.20
2019-02-15T10:28:53.607Z,23.20
2019-02-15T10:32:09.653Z,23.20
2019-02-15T10:35:25.707Z,23.30
2019-02-15T10:42:05.611Z,23.30
2019-02-15T10:45:21.746Z,23.30
2019-02-15T10:48:35.456Z,23.30
2019-02-15T10:51:58.142Z,23.30
2019-02-15T10:55:20.863Z,23.40
2019-02-15T10:58:36.310Z,23.40
2019-02-15T11:01:52.246Z,23.40
2019-02-15T11:08:12.346Z,23.40
2019-02-15T11:11:35.025Z,23.40
2019-02-15T11:14:50.830Z,23.50
2019-02-15T11:18:06.811Z,23.50
2019-02-15T11:21:22.676Z,23.50
2019-02-15T11:24:38.654Z,23.60
2019-02-15T11:27:54.198Z,23.60
2019-02-15T11:31:10.314Z,23.60
2019-02-15T11:34:26.386Z,23.60
2019-02-15T11:41:11.148Z,23.60
2019-02-15T11:44:23.725Z,23.60
2019-02-15T11:47:39.905Z,23.70
2019-02-15T11:50:55.875Z,23.70
2019-02-15T11:54:11.565Z,23.70
2019-02-15T11:57:28.622Z,23.70
2019-02-15T12:00:44.785Z,23.70
2019-02-15T12:03:58.448Z,23.70
2019-02-15T12:07:21.144Z,23.70
2019-02-15T12:10:37.145Z,23.80
2019-02-15T12:13:53.233Z,23.80
2019-02-15T12:17:08.548Z,23.80
2019-02-15T12:20:24.592Z,23.80
2019-02-15T12:23:40.666Z,23.80
2019-02-15T12:26:56.746Z,23.80
2019-02-15T12:30:11.189Z,23.80
2019-02-15T12:33:33.914Z,23.80
2019-02-15T12:36:49.584Z,23.80
2019-02-15T12:40:05.571Z,23.90
2019-02-15T12:43:21.705Z,23.90
2019-02-15T12:46:37.799Z,23.90
2019-02-15T12:49:53.016Z,23.90
2019-02-15T12:53:09.021Z,23.90
2019-02-15T12:56:24.931Z,24.00
2019-02-15T12:59:40.957Z,24.00
2019-02-15T13:02:56.480Z,24.00
2019-02-15T13:06:12.659Z,24.00
2019-02-15T13:09:28.729Z,24.10
2019-02-15T13:12:44.387Z,24.00
2019-02-15T13:15:59.798Z,24.10
2019-02-15T13:19:15.411Z,24.10
2019-02-15T13:22:30.674Z,24.10
2019-02-15T13:25:46.310Z,24.10
2019-02-15T13:29:02.301Z,24.10
2019-02-15T13:32:17.738Z,24.20
2019-02-15T13:35:33.815Z,24.20
2019-02-15T13:38:49.500Z,24.20
2019-02-15T13:42:05.527Z,24.20
2019-02-15T13:45:22.004Z,24.20
2019-02-15T13:48:38.168Z,24.20
2019-02-15T13:51:54.905Z,24.30
2019-02-15T13:55:10.925Z,24.30
2019-02-15T13:58:26.435Z,24.30
2019-02-15T14:01:42.430Z,24.30
2019-02-15T14:04:58.477Z,24.30
2019-02-15T14:08:13.766Z,24.30
2019-02-15T14:11:29.790Z,24.40
2019-02-15T14:14:33.058Z,24.40
2019-02-15T14:17:55.734Z,24.40
2019-02-15T14:21:11.390Z,24.40
2019-02-15T14:24:27.123Z,24.40
2019-02-15T14:27:43.167Z,24.40
2019-02-15T14:30:59.013Z,24.50
2019-02-15T14:34:14.725Z,24.40
2019-02-15T14:37:30.571Z,24.40
2019-02-15T14:40:46.027Z,24.40
2019-02-15T14:44:02.023Z,24.40
2019-02-15T14:47:15.715Z,24.40
2019-02-15T14:50:31.153Z,24.40
2019-02-15T14:53:47.155Z,24.40
2019-02-15T14:57:02.407Z,24.30
2019-02-15T15:00:18.283Z,24.30
2019-02-15T15:03:34.310Z,24.30
2019-02-15T15:06:50.586Z,24.30
2019-02-15T15:10:06.398Z,24.20
2019-02-15T15:13:22.434Z,24.20
2019-02-15T15:16:38.263Z,24.20
2019-02-15T15:19:53.606Z,24.20
2019-02-15T15:23:09.494Z,24.20
2019-02-15T15:26:23.191Z,24.20
2019-02-15T15:30:00.309Z,24.20
2019-02-15T15:33:02.979Z,24.10
2019-02-15T15:36:18.285Z,24.10
2019-02-15T15:39:41.261Z,24.10
2019-02-15T15:42:56.598Z,24.10
2019-02-15T15:46:11.872Z,24.10
2019-02-15T15:49:27.871Z,24.10
2019-02-15T15:52:43.045Z,24.10
2019-02-15T15:55:59.131Z,24.10
2019-02-15T15:59:14.821Z,24.10
2019-02-15T16:02:30.667Z,24.00
2019-02-15T16:05:46.609Z,24.00
2019-02-15T16:09:01.841Z,24.00
2019-02-15T16:12:17.702Z,24.00
2019-02-15T16:15:33.838Z,24.00
2019-02-15T16:18:49.516Z,24.00
2019-02-15T16:22:05.753Z,24.00
2019-02-15T16:25:21.401Z,24.00
2019-02-15T16:28:37.407Z,24.00
2019-02-15T16:31:52.654Z,24.00
2019-02-15T16:35:08.102Z,24.00
2019-02-15T16:38:24.075Z,24.00
2019-02-15T16:41:40.002Z,24.00
2019-02-15T16:44:56.284Z,24.00
2019-02-15T16:48:12.212Z,24.00
2019-02-15T16:51:27.535Z,24.00
2019-02-15T16:54:43.279Z,23.90
2019-02-15T16:57:59.013Z,23.90
2019-02-15T17:01:14.315Z,23.90
2019-02-15T17:04:30.151Z,23.90
2019-02-15T17:07:45.829Z,23.90
2019-02-15T17:11:01.739Z,23.90
2019-02-15T17:14:17.627Z,23.90
2019-02-15T17:17:33.502Z,23.90
2019-02-15T17:20:49.073Z,23.90
2019-02-15T17:24:04.814Z,23.90
2019-02-15T17:27:08.063Z,23.90
2019-02-15T17:30:30.815Z,23.90
2019-02-15T17:33:53.493Z,23.90
2019-02-15T17:37:08.658Z,23.90
2019-02-15T17:40:22.307Z,23.90
2019-02-15T17:43:45.027Z,23.90
2019-02-15T17:47:00.451Z,23.90
2019-02-15T17:50:15.715Z,23.90
2019-02-15T17:53:31.749Z,23.90
2019-02-15T17:56:47.356Z,23.90
2019-02-15T18:00:03.667Z,23.90
2019-02-15T18:03:17.257Z,23.90
2019-02-15T18:06:32.906Z,23.90
2019-02-15T18:09:48.382Z,23.90
2019-02-15T18:13:03.850Z,23.90
2019-02-15T18:16:19.799Z,23.90
2019-02-15T18:19:35.650Z,23.90
2019-02-15T18:22:51.598Z,23.90
2019-02-15T18:26:06.897Z,23.90
2019-02-15T18:29:22.403Z,23.90
2019-02-15T18:32:38.540Z,23.90
2019-02-15T18:35:54.450Z,23.90
2019-02-15T18:39:10.699Z,23.90
2019-02-15T18:42:24.289Z,23.90
2019-02-15T18:45:47.056Z,23.90
2019-02-15T18:49:03.136Z,23.90
2019-02-15T18:52:19.242Z,23.90
2019-02-15T18:55:35.284Z,23.90
2019-02-15T18:58:50.520Z,23.90
2019-02-15T19:02:06.510Z,23.90
2019-02-15T19:05:21.744Z,23.90
2019-02-15T19:08:37.447Z,23.90
2019-02-15T19:11:53.492Z,23.90
2019-02-15T19:15:09.162Z,23.90
2019-02-15T19:18:24.926Z,23.90
2019-02-15T19:21:40.913Z,23.90
2019-02-15T19:24:56.394Z,23.90
2019-02-15T19:28:12.338Z,23.90
2019-02-15T19:31:25.963Z,23.90
2019-02-15T19:34:41.215Z,23.90
2019-02-15T19:37:56.970Z,23.90
2019-02-15T19:41:12.827Z,23.90
2019-02-15T19:44:28.740Z,23.90
2019-02-15T19:47:44.636Z,23.90
2019-02-15T19:51:00.803Z,23.90
2019-02-15T19:54:16.935Z,23.90
2019-02-15T19:57:32.660Z,23.90
2019-02-15T20:00:48.514Z,23.90
2019-02-15T20:04:02.056Z,23.80
2019-02-15T20:07:24.760Z,23.90
2019-02-15T20:10:40.159Z,23.90
2019-02-15T20:13:56.281Z,23.90
2019-02-15T20:17:11.915Z,23.90
2019-02-15T20:20:25.526Z,23.90
2019-02-15T20:23:41.281Z,23.90
2019-02-15T20:26:57.309Z,23.90
2019-02-15T20:30:13.143Z,23.90
2019-02-15T20:33:28.859Z,23.90
2019-02-15T20:40:01.547Z,23.90
2019-02-15T20:43:17.378Z,23.90
2019-02-15T20:46:33.425Z,23.90
2019-02-15T20:49:57.532Z,23.90
2019-02-15T20:53:06.050Z,23.80
2019-02-15T20:56:22.045Z,23.80
2019-02-15T20:59:37.806Z,23.80
2019-02-15T21:02:53.549Z,23.80
2019-02-15T21:06:09.674Z,23.80
2019-02-15T21:09:25.592Z,23.70
2019-02-15T21:12:41.709Z,23.70
2019-02-15T21:15:57.519Z,23.70
2019-02-15T21:19:13.382Z,23.70
2019-02-15T21:22:29.023Z,23.70
2019-02-15T21:25:44.937Z,23.60
2019-02-15T21:29:00.350Z,23.60
2019-02-15T21:32:15.683Z,23.60
2019-02-15T21:35:31.324Z,23.60
2019-02-15T21:38:46.563Z,23.60
2019-02-15T21:42:02.337Z,23.60
2019-02-15T21:45:18.228Z,23.60
2019-02-15T21:48:31.823Z,23.60
2019-02-15T21:51:54.522Z,23.50
2019-02-15T21:55:12.243Z,23.60
2019-02-15T21:58:28.157Z,23.50
2019-02-15T22:01:43.896Z,23.50
2019-02-15T22:04:59.722Z,23.50
2019-02-15T22:08:15.438Z,23.50
2019-02-15T22:11:31.445Z,23.50
2019-02-15T22:14:47.177Z,23.50
2019-02-15T22:18:03.066Z,23.50
2019-02-15T22:21:18.913Z,23.50
2019-02-15T22:24:34.839Z,23.50
2019-02-15T22:27:50.910Z,23.50
2019-02-15T22:31:06.990Z,23.50
2019-02-15T22:34:22.914Z,23.40
2019-02-15T22:37:38.139Z,23.40
2019-02-15T22:40:53.512Z,23.40
2019-02-15T22:44:09.671Z,23.40
2019-02-15T22:47:25.542Z,23.40
2019-02-15T22:50:41.618Z,23.40
2019-02-15T22:53:55.181Z,23.40
2019-02-15T22:57:17.863Z,23.30
2019-02-15T23:00:52.538Z,23.30
2019-02-15T23:04:07.950Z,23.30
2019-02-15T23:07:23.222Z,23.30
2019-02-15T23:10:39.066Z,23.30
2019-02-15T23:13:55.087Z,23.30
2019-02-15T23:17:08.630Z,23.30
2019-02-15T23:23:48.695Z,23.30
2019-02-15T23:27:04.531Z,23.30
2019-02-15T23:30:20.282Z,23.30
2019-02-15T23:33:35.614Z,23.30
2019-02-15T23:36:51.506Z,23.30
2019-02-15T23:40:06.778Z,23.30
2019-02-15T23:43:22.047Z,23.30
2019-02-15T23:46:37.327Z,23.30
2019-02-15T23:49:53.181Z,23.20
2019-02-15T23:53:08.580Z,23.30
2019-02-15T23:56:24.330Z,23.20
2019-02-15T23:59:40.170Z,23.20
